createdAt,value
2019-03-30T00:00:44.114Z,4.30
2019-03-30T00:01:42.827Z,3.60
2019-03-30T00:02:42.813Z,4.30
2019-03-30T00:03:42.975Z,4.50
2019-03-30T00:04:42.815Z,4.20
2019-03-30T00:05:42.789Z,4.30
2019-03-30T00:06:42.786Z,4.40
2019-03-30T00:07:42.757Z,5.20
2019-03-30T00:08:42.753Z,5.50
2019-03-30T00:09:42.756Z,4.70
2019-03-30T00:10:42.724Z,5.20
2019-03-30T00:11:42.728Z,5.90
2019-03-30T00:12:42.701Z,4.80
2019-03-30T00:13:42.693Z,5.30
2019-03-30T00:14:42.687Z,5.00
2019-03-30T00:15:42.674Z,4.70
2019-03-30T00:16:42.660Z,4.90
2019-03-30T00:17:42.653Z,4.60
2019-03-30T00:18:42.655Z,5.10
2019-03-30T00:19:42.627Z,4.50
2019-03-30T00:20:42.621Z,5.60
2019-03-30T00:21:42.604Z,4.90
2019-03-30T00:22:42.596Z,4.70
2019-03-30T00:23:42.595Z,4.70
2019-03-30T00:24:42.572Z,4.80
2019-03-30T00:25:42.607Z,5.60
2019-03-30T00:26:42.549Z,4.70
2019-03-30T00:27:42.541Z,5.90
2019-03-30T00:28:42.530Z,5.40
2019-03-30T00:29:42.535Z,5.80
2019-03-30T00:30:42.508Z,5.40
2019-03-30T00:31:42.504Z,5.60
2019-03-30T00:32:42.486Z,5.10
2019-03-30T00:33:42.476Z,5.60
2019-03-30T00:34:42.467Z,5.60
2019-03-30T00:35:42.455Z,5.70
2019-03-30T00:36:42.444Z,5.30
2019-03-30T00:37:42.440Z,5.80
2019-03-30T00:38:42.424Z,5.30
2019-03-30T00:39:42.416Z,6.10
2019-03-30T00:40:42.406Z,6.00
2019-03-30T00:41:42.396Z,6.90
2019-03-30T00:42:42.383Z,6.20
2019-03-30T00:43:42.366Z,5.60
2019-03-30T00:44:42.362Z,5.90
2019-03-30T00:45:42.346Z,6.40
2019-03-30T00:46:42.340Z,6.40
2019-03-30T00:47:42.321Z,5.30
2019-03-30T00:48:42.321Z,6.60
2019-03-30T00:49:48.943Z,5.50
2019-03-30T00:50:43.292Z,5.40
2019-03-30T00:51:42.283Z,5.20
2019-03-30T00:52:42.268Z,6.30
2019-03-30T00:53:42.258Z,5.70
2019-03-30T00:54:42.251Z,5.40
2019-03-30T00:55:42.235Z,5.10
2019-03-30T00:56:42.299Z,5.30
2019-03-30T00:57:42.222Z,5.20
2019-03-30T00:58:42.225Z,5.10
2019-03-30T00:59:42.209Z,5.80
2019-03-30T01:00:42.193Z,5.30
2019-03-30T01:01:42.173Z,4.90
2019-03-30T01:02:42.162Z,4.80
2019-03-30T01:03:42.174Z,5.00
2019-03-30T01:04:42.143Z,5.00
2019-03-30T01:05:42.134Z,5.30
2019-03-30T01:06:42.121Z,5.80
2019-03-30T01:07:42.114Z,5.00
2019-03-30T01:08:42.097Z,4.90
2019-03-30T01:09:42.112Z,5.00
2019-03-30T01:10:42.094Z,5.20
2019-03-30T01:11:42.072Z,5.10
2019-03-30T01:12:42.056Z,5.00
2019-03-30T01:13:42.049Z,4.90
2019-03-30T01:14:42.038Z,4.70
2019-03-30T01:15:42.032Z,5.20
2019-03-30T01:16:42.016Z,5.30
2019-03-30T01:17:42.057Z,5.40
2019-03-30T01:18:41.990Z,5.50
2019-03-30T01:19:41.999Z,5.20
2019-03-30T01:20:41.974Z,5.20
2019-03-30T01:21:41.963Z,5.20
2019-03-30T01:22:41.953Z,4.90
2019-03-30T01:23:41.941Z,5.40
2019-03-30T01:24:41.926Z,5.50
2019-03-30T01:25:41.931Z,5.60
2019-03-30T01:26:41.905Z,6.10
2019-03-30T01:27:41.909Z,7.20
2019-03-30T01:28:41.891Z,5.90
2019-03-30T01:29:41.884Z,6.20
2019-03-30T01:30:41.860Z,7.10
2019-03-30T01:31:41.853Z,6.60
2019-03-30T01:32:41.852Z,6.50
2019-03-30T01:33:41.839Z,6.60
2019-03-30T01:34:41.869Z,6.40
2019-03-30T01:35:41.815Z,6.40
2019-03-30T01:36:41.804Z,6.60
2019-03-30T01:37:41.794Z,5.70
2019-03-30T01:38:41.783Z,6.30
2019-03-30T01:39:41.780Z,6.30
2019-03-30T01:40:41.794Z,7.40
2019-03-30T01:41:41.747Z,5.80
2019-03-30T01:42:41.733Z,6.70
2019-03-30T01:43:41.725Z,5.90
2019-03-30T01:44:41.718Z,6.60
2019-03-30T01:45:41.712Z,6.20
2019-03-30T01:46:41.709Z,5.90
2019-03-30T01:47:41.686Z,5.60
2019-03-30T01:48:41.676Z,5.80
2019-03-30T01:49:41.668Z,6.00
2019-03-30T01:50:41.660Z,5.60
2019-03-30T01:51:41.659Z,5.40
2019-03-30T01:52:41.637Z,5.80
2019-03-30T01:53:41.627Z,5.90
2019-03-30T01:54:41.617Z,5.90
2019-03-30T01:55:41.608Z,5.40
2019-03-30T01:56:41.601Z,5.50
2019-03-30T01:57:41.605Z,6.30
2019-03-30T01:58:41.570Z,5.20
2019-03-30T01:59:41.562Z,5.50
2019-03-30T02:00:41.545Z,6.10
2019-03-30T02:01:41.539Z,5.50
2019-03-30T02:02:41.528Z,5.60
2019-03-30T02:03:41.540Z,5.80
2019-03-30T02:04:41.509Z,5.60
2019-03-30T02:05:41.496Z,5.90
2019-03-30T02:06:41.489Z,5.70
2019-03-30T02:07:41.483Z,5.10
2019-03-30T02:08:41.470Z,5.30
2019-03-30T02:09:41.474Z,5.50
2019-03-30T02:10:41.442Z,5.80
2019-03-30T02:11:41.442Z,5.80
2019-03-30T02:12:41.428Z,5.20
2019-03-30T02:13:41.425Z,6.10
2019-03-30T02:14:41.416Z,5.30
2019-03-30T02:15:41.389Z,5.70
2019-03-30T02:16:41.373Z,5.00
2019-03-30T02:17:41.367Z,5.20
2019-03-30T02:18:41.359Z,5.20
2019-03-30T02:19:41.350Z,5.40
2019-03-30T02:20:41.359Z,4.70
2019-03-30T02:21:41.324Z,5.50
2019-03-30T02:22:41.308Z,5.30
2019-03-30T02:23:41.308Z,5.00
2019-03-30T02:24:41.294Z,4.80
2019-03-30T02:25:41.307Z,4.70
2019-03-30T02:26:41.298Z,4.90
2019-03-30T02:27:41.260Z,4.90
2019-03-30T02:28:41.244Z,5.10
2019-03-30T02:29:41.247Z,5.00
2019-03-30T02:30:41.225Z,4.80
2019-03-30T02:31:41.232Z,5.30
2019-03-30T02:32:41.203Z,4.70
2019-03-30T02:33:41.190Z,4.70
2019-03-30T02:34:41.185Z,4.50
2019-03-30T02:35:41.229Z,5.20
2019-03-30T02:36:41.168Z,4.90
2019-03-30T02:37:41.150Z,5.10
2019-03-30T02:38:41.145Z,4.40
2019-03-30T02:39:41.121Z,5.40
2019-03-30T02:40:41.113Z,4.70
2019-03-30T02:41:41.102Z,4.80
2019-03-30T02:42:41.106Z,4.20
2019-03-30T02:43:41.079Z,4.60
2019-03-30T02:44:41.078Z,4.20
2019-03-30T02:45:41.055Z,4.50
2019-03-30T02:46:41.054Z,5.00
2019-03-30T02:47:41.041Z,4.50
2019-03-30T02:48:41.045Z,4.70
2019-03-30T02:49:41.019Z,4.80
2019-03-30T02:50:50.115Z,4.40
2019-03-30T02:51:41.998Z,5.20
2019-03-30T02:52:40.987Z,4.20
2019-03-30T02:53:40.979Z,4.30
2019-03-30T02:54:41.015Z,5.00
2019-03-30T02:55:40.956Z,5.10
2019-03-30T02:56:40.937Z,4.80
2019-03-30T02:57:40.930Z,4.50
2019-03-30T02:58:40.911Z,4.40
2019-03-30T02:59:40.915Z,5.10
2019-03-30T03:00:40.888Z,4.40
2019-03-30T03:01:40.885Z,4.60
2019-03-30T03:02:40.868Z,4.60
2019-03-30T03:03:40.864Z,4.90
2019-03-30T03:04:40.855Z,4.50
2019-03-30T03:05:40.854Z,4.20
2019-03-30T03:06:40.830Z,4.80
2019-03-30T03:07:40.828Z,4.60
2019-03-30T03:08:40.801Z,4.70
2019-03-30T03:09:40.810Z,4.50
2019-03-30T03:10:40.818Z,3.80
2019-03-30T03:11:40.799Z,4.20
2019-03-30T03:12:40.767Z,4.10
2019-03-30T03:13:40.757Z,4.60
2019-03-30T03:14:40.739Z,3.90
2019-03-30T03:15:40.729Z,4.10
2019-03-30T03:16:40.744Z,4.40
2019-03-30T03:17:40.706Z,4.10
2019-03-30T03:18:40.704Z,4.30
2019-03-30T03:19:40.698Z,4.30
2019-03-30T03:20:40.680Z,4.20
2019-03-30T03:21:40.672Z,4.10
2019-03-30T03:22:40.668Z,4.30
2019-03-30T03:23:40.651Z,4.40
2019-03-30T03:24:40.637Z,4.10
2019-03-30T03:25:40.619Z,4.30
2019-03-30T03:26:40.610Z,4.00
2019-03-30T03:27:40.633Z,4.00
2019-03-30T03:28:40.605Z,4.10
2019-03-30T03:29:43.453Z,4.30
2019-03-30T03:30:40.703Z,4.20
2019-03-30T03:31:40.580Z,4.40
2019-03-30T03:32:40.541Z,4.20
2019-03-30T03:33:40.560Z,4.00
2019-03-30T03:34:40.525Z,3.70
2019-03-30T03:35:40.507Z,3.80
2019-03-30T03:36:40.501Z,3.70
2019-03-30T03:37:45.548Z,4.10
2019-03-30T03:38:41.475Z,3.60
2019-03-30T03:39:40.485Z,3.90
2019-03-30T03:40:40.454Z,4.20
2019-03-30T03:41:40.443Z,4.20
2019-03-30T03:42:40.442Z,4.10
2019-03-30T03:43:40.423Z,3.90
2019-03-30T03:44:40.420Z,3.80
2019-03-30T03:45:40.419Z,4.20
2019-03-30T03:46:40.399Z,4.50
2019-03-30T03:47:40.382Z,4.60
2019-03-30T03:48:40.368Z,4.30
2019-03-30T03:49:40.359Z,3.90
2019-03-30T03:50:40.360Z,4.10
2019-03-30T03:51:40.356Z,4.00
2019-03-30T03:52:40.337Z,4.40
2019-03-30T03:53:40.330Z,3.80
2019-03-30T03:54:40.317Z,4.10
2019-03-30T03:55:40.299Z,4.10
2019-03-30T03:56:40.313Z,4.20
2019-03-30T03:57:40.283Z,4.00
2019-03-30T03:58:40.273Z,4.00
2019-03-30T03:59:40.260Z,3.70
2019-03-30T04:00:40.269Z,3.80
2019-03-30T04:01:40.239Z,3.70
2019-03-30T04:02:40.249Z,3.90
2019-03-30T04:03:40.218Z,3.90
2019-03-30T04:04:40.209Z,4.10
2019-03-30T04:05:40.212Z,4.10
2019-03-30T04:06:40.197Z,4.40
2019-03-30T04:07:40.217Z,4.20
2019-03-30T04:08:40.193Z,3.80
2019-03-30T04:09:40.183Z,3.70
2019-03-30T04:10:40.135Z,4.10
2019-03-30T04:11:40.135Z,4.20
2019-03-30T04:12:40.123Z,3.80
2019-03-30T04:13:40.134Z,4.10
2019-03-30T04:14:40.097Z,3.50
2019-03-30T04:15:40.109Z,4.20
2019-03-30T04:16:40.085Z,3.60
2019-03-30T04:17:40.076Z,3.60
2019-03-30T04:18:40.053Z,3.60
2019-03-30T04:19:40.082Z,4.10
2019-03-30T04:20:40.040Z,3.70
2019-03-30T04:21:44.494Z,3.70
2019-03-30T04:22:40.010Z,3.60
2019-03-30T04:23:40.006Z,3.40
2019-03-30T04:24:39.990Z,3.80
2019-03-30T04:25:39.996Z,3.80
2019-03-30T04:26:39.969Z,3.70
2019-03-30T04:27:39.970Z,3.40
2019-03-30T04:28:39.952Z,3.70
2019-03-30T04:29:39.940Z,3.60
2019-03-30T04:30:40.010Z,3.60
2019-03-30T04:31:39.912Z,3.50
2019-03-30T04:32:39.908Z,3.40
2019-03-30T04:33:39.897Z,3.80
2019-03-30T04:34:39.891Z,3.70
2019-03-30T04:35:39.872Z,3.50
2019-03-30T04:36:39.864Z,3.00
2019-03-30T04:37:39.843Z,3.70
2019-03-30T04:38:39.847Z,3.50
2019-03-30T04:39:39.820Z,3.70
2019-03-30T04:40:39.819Z,3.40
2019-03-30T04:41:39.811Z,3.30
2019-03-30T04:42:39.807Z,3.30
2019-03-30T04:43:39.783Z,3.90
2019-03-30T04:44:39.775Z,3.30
2019-03-30T04:45:39.755Z,3.10
2019-03-30T04:46:39.761Z,3.70
2019-03-30T04:47:39.744Z,3.40
2019-03-30T04:48:39.725Z,3.50
2019-03-30T04:49:39.717Z,3.40
2019-03-30T04:50:39.703Z,3.40
2019-03-30T04:51:39.693Z,3.40
2019-03-30T04:52:39.690Z,3.40
2019-03-30T04:53:39.682Z,3.30
2019-03-30T04:54:39.669Z,3.80
2019-03-30T04:55:39.646Z,3.50
2019-03-30T04:56:39.637Z,3.30
2019-03-30T04:57:39.626Z,3.00
2019-03-30T04:58:39.628Z,3.40
2019-03-30T04:59:39.621Z,3.60
2019-03-30T05:00:39.591Z,3.50
2019-03-30T05:01:39.586Z,3.20
2019-03-30T05:02:39.578Z,3.40
2019-03-30T05:03:39.560Z,3.70
2019-03-30T05:04:39.560Z,3.60
2019-03-30T05:05:42.878Z,3.00
2019-03-30T05:06:39.527Z,3.10
2019-03-30T05:07:39.519Z,3.20
2019-03-30T05:08:39.507Z,3.10
2019-03-30T05:09:39.495Z,3.50
2019-03-30T05:10:39.499Z,3.50
2019-03-30T05:11:39.473Z,3.40
2019-03-30T05:12:39.465Z,3.50
2019-03-30T05:13:39.449Z,2.90
2019-03-30T05:14:39.439Z,3.20
2019-03-30T05:15:39.447Z,2.80
2019-03-30T05:16:39.417Z,3.20
2019-03-30T05:17:47.567Z,3.40
2019-03-30T05:18:40.395Z,3.50
2019-03-30T05:19:39.390Z,3.30
2019-03-30T05:20:39.374Z,3.30
2019-03-30T05:21:39.367Z,3.10
2019-03-30T05:22:39.354Z,3.50
2019-03-30T05:23:39.340Z,3.40
2019-03-30T05:24:39.339Z,3.60
2019-03-30T05:25:39.325Z,3.20
2019-03-30T05:26:39.310Z,3.30
2019-03-30T05:27:39.331Z,3.50
2019-03-30T05:28:39.290Z,3.20
2019-03-30T05:29:39.275Z,3.20
2019-03-30T05:30:39.285Z,3.20
2019-03-30T05:31:39.255Z,3.40
2019-03-30T05:32:41.693Z,3.40
2019-03-30T05:33:39.232Z,3.10
2019-03-30T05:34:39.225Z,3.10
2019-03-30T05:35:39.220Z,3.00
2019-03-30T05:36:39.198Z,3.10
2019-03-30T05:37:39.186Z,3.70
2019-03-30T05:38:39.189Z,3.00
2019-03-30T05:39:39.168Z,3.20
2019-03-30T05:40:39.163Z,3.30
2019-03-30T05:41:39.155Z,3.20
2019-03-30T05:42:39.138Z,3.30
2019-03-30T05:43:39.140Z,3.10
2019-03-30T05:44:39.129Z,3.50
2019-03-30T05:45:39.101Z,3.20
2019-03-30T05:46:39.092Z,3.20
2019-03-30T05:47:39.088Z,2.70
2019-03-30T05:48:39.070Z,2.90
2019-03-30T05:49:39.065Z,3.50
2019-03-30T05:50:39.048Z,3.00
2019-03-30T05:51:39.042Z,3.40
2019-03-30T05:52:39.032Z,3.10
2019-03-30T05:53:39.030Z,3.30
2019-03-30T05:54:39.012Z,3.20
2019-03-30T05:55:39.009Z,3.20
2019-03-30T05:56:39.015Z,3.30
2019-03-30T05:57:38.979Z,3.20
2019-03-30T05:58:38.981Z,3.30
2019-03-30T05:59:38.968Z,3.20
2019-03-30T06:00:38.943Z,3.20
2019-03-30T06:01:38.943Z,3.40
2019-03-30T06:02:38.956Z,3.40
2019-03-30T06:03:38.929Z,3.30
2019-03-30T06:04:38.905Z,3.10
2019-03-30T06:05:38.888Z,2.90
2019-03-30T06:06:38.890Z,3.60
2019-03-30T06:07:38.878Z,3.30
2019-03-30T06:08:38.860Z,3.00
2019-03-30T06:09:38.872Z,3.30
2019-03-30T06:10:39.134Z,3.10
2019-03-30T06:11:38.824Z,3.10
2019-03-30T06:12:38.821Z,3.10
2019-03-30T06:13:38.832Z,3.20
2019-03-30T06:14:38.799Z,3.20
2019-03-30T06:15:38.779Z,3.30
2019-03-30T06:16:38.767Z,3.00
2019-03-30T06:17:38.776Z,2.80
2019-03-30T06:18:38.750Z,3.00
2019-03-30T06:19:38.741Z,3.30
2019-03-30T06:20:38.733Z,3.20
2019-03-30T06:21:38.718Z,3.10
2019-03-30T06:22:40.575Z,2.80
2019-03-30T06:23:38.696Z,3.20
2019-03-30T06:24:38.679Z,3.10
2019-03-30T06:25:38.686Z,3.00
2019-03-30T06:26:38.653Z,3.10
2019-03-30T06:27:38.652Z,3.30
2019-03-30T06:28:38.634Z,3.40
2019-03-30T06:29:38.636Z,3.50
2019-03-30T06:30:38.612Z,3.20
2019-03-30T06:31:38.627Z,3.30
2019-03-30T06:32:38.587Z,3.10
2019-03-30T06:33:38.593Z,3.40
2019-03-30T06:34:38.571Z,2.90
2019-03-30T06:35:38.555Z,3.10
2019-03-30T06:36:38.557Z,3.40
2019-03-30T06:37:38.538Z,3.00
2019-03-30T06:38:38.525Z,2.80
2019-03-30T06:39:38.518Z,3.20
2019-03-30T06:40:38.512Z,3.30
2019-03-30T06:41:38.491Z,3.10
2019-03-30T06:42:38.481Z,2.90
2019-03-30T06:43:38.466Z,2.60
2019-03-30T06:44:38.458Z,3.10
2019-03-30T06:45:38.457Z,2.80
2019-03-30T06:46:39.593Z,3.10
2019-03-30T06:47:38.431Z,3.10
2019-03-30T06:48:38.426Z,3.00
2019-03-30T06:49:38.398Z,3.40
2019-03-30T06:50:38.395Z,2.70
2019-03-30T06:51:38.392Z,2.60
2019-03-30T06:52:41.244Z,2.90
2019-03-30T06:53:39.353Z,3.00
2019-03-30T06:54:38.354Z,3.20
2019-03-30T06:55:38.351Z,2.80
2019-03-30T06:56:38.324Z,3.00
2019-03-30T06:57:38.314Z,2.70
2019-03-30T06:58:38.302Z,3.10
2019-03-30T06:59:38.294Z,2.90
2019-03-30T07:00:38.275Z,2.90
2019-03-30T07:01:38.265Z,2.90
2019-03-30T07:02:38.260Z,2.80
2019-03-30T07:03:38.246Z,2.90
2019-03-30T07:04:38.242Z,3.10
2019-03-30T07:05:38.225Z,2.80
2019-03-30T07:06:38.210Z,3.30
2019-03-30T07:07:38.199Z,2.80
2019-03-30T07:08:38.218Z,3.10
2019-03-30T07:09:38.180Z,3.10
2019-03-30T07:10:38.480Z,2.60
2019-03-30T07:11:38.170Z,3.00
2019-03-30T07:12:38.141Z,2.60
2019-03-30T07:13:38.144Z,3.00
2019-03-30T07:14:38.124Z,2.80
2019-03-30T07:15:38.116Z,2.80
2019-03-30T07:16:38.101Z,2.40
2019-03-30T07:17:38.106Z,2.60
2019-03-30T07:18:38.079Z,2.50
2019-03-30T07:19:38.075Z,2.70
2019-03-30T07:20:38.061Z,3.20
2019-03-30T07:21:38.042Z,2.80
2019-03-30T07:22:38.043Z,2.50
2019-03-30T07:23:38.038Z,2.80
2019-03-30T07:24:38.016Z,2.70
2019-03-30T07:25:37.999Z,2.70
2019-03-30T07:26:37.985Z,2.90
2019-03-30T07:27:37.980Z,2.60
2019-03-30T07:28:37.973Z,2.50
2019-03-30T07:29:37.961Z,2.70
2019-03-30T07:30:37.959Z,2.60
2019-03-30T07:31:37.930Z,2.50
2019-03-30T07:32:37.920Z,2.70
2019-03-30T07:33:37.912Z,2.90
2019-03-30T07:34:37.920Z,2.40
2019-03-30T07:35:37.889Z,2.60
2019-03-30T07:36:37.900Z,2.80
2019-03-30T07:37:37.867Z,2.70
2019-03-30T07:38:37.856Z,2.30
2019-03-30T07:39:37.850Z,2.60
2019-03-30T07:40:37.853Z,2.40
2019-03-30T07:41:37.827Z,2.90
2019-03-30T07:42:37.824Z,2.80
2019-03-30T07:43:37.802Z,2.50
2019-03-30T07:44:37.790Z,2.40
2019-03-30T07:45:37.786Z,2.40
2019-03-30T07:46:37.770Z,2.70
2019-03-30T07:47:37.767Z,2.30
2019-03-30T07:48:37.783Z,2.50
2019-03-30T07:49:37.734Z,2.70
2019-03-30T07:50:37.730Z,2.70
2019-03-30T07:51:37.771Z,3.00
2019-03-30T07:52:37.711Z,3.30
2019-03-30T07:53:44.460Z,2.70
2019-03-30T07:54:38.676Z,2.80
2019-03-30T07:55:37.679Z,2.80
2019-03-30T07:56:37.662Z,2.30
2019-03-30T07:57:37.668Z,2.40
2019-03-30T07:58:37.649Z,2.50
2019-03-30T07:59:37.634Z,2.70
2019-03-30T08:00:37.623Z,2.50
2019-03-30T08:01:37.608Z,2.60
2019-03-30T08:02:37.602Z,2.80
2019-03-30T08:03:37.583Z,2.30
2019-03-30T08:04:37.589Z,2.50
2019-03-30T08:05:37.563Z,2.40
2019-03-30T08:06:37.553Z,2.60
2019-03-30T08:07:37.541Z,2.80
2019-03-30T08:08:37.535Z,2.60
2019-03-30T08:09:37.522Z,2.50
2019-03-30T08:10:37.519Z,2.50
2019-03-30T08:11:37.498Z,2.60
2019-03-30T08:12:37.486Z,3.00
2019-03-30T08:13:37.477Z,2.60
2019-03-30T08:14:37.540Z,2.30
2019-03-30T08:15:37.477Z,2.30
2019-03-30T08:16:37.457Z,2.60
2019-03-30T08:17:37.436Z,2.60
2019-03-30T08:18:37.428Z,2.50
2019-03-30T08:19:37.423Z,2.10
2019-03-30T08:20:37.418Z,2.20
2019-03-30T08:21:37.399Z,2.30
2019-03-30T08:22:37.397Z,2.30
2019-03-30T08:23:40.631Z,2.30
2019-03-30T08:24:37.469Z,2.50
2019-03-30T08:25:37.369Z,2.70
2019-03-30T08:26:37.337Z,2.40
2019-03-30T08:27:37.370Z,2.90
2019-03-30T08:28:37.370Z,2.60
2019-03-30T08:29:37.391Z,2.50
2019-03-30T08:30:37.295Z,2.60
2019-03-30T08:31:37.294Z,2.20
2019-03-30T08:32:37.311Z,2.20
2019-03-30T08:33:37.275Z,2.30
2019-03-30T08:34:37.256Z,2.20
2019-03-30T08:35:37.246Z,2.40
2019-03-30T08:36:37.229Z,2.70
2019-03-30T08:37:37.220Z,2.20
2019-03-30T08:38:37.233Z,2.30
2019-03-30T08:39:37.224Z,2.50
2019-03-30T08:40:37.228Z,2.30
2019-03-30T08:41:37.173Z,2.30
2019-03-30T08:42:37.165Z,2.30
2019-03-30T08:43:37.167Z,2.30
2019-03-30T08:44:37.179Z,2.50
2019-03-30T08:45:37.133Z,2.30
2019-03-30T08:46:37.129Z,2.30
2019-03-30T08:47:37.314Z,2.40
2019-03-30T08:48:37.101Z,2.60
2019-03-30T08:49:37.098Z,2.70
2019-03-30T08:50:37.115Z,2.80
2019-03-30T08:51:37.084Z,2.70
2019-03-30T08:52:37.053Z,2.40
2019-03-30T08:53:37.039Z,2.30
2019-03-30T08:54:37.034Z,2.50
2019-03-30T08:55:37.034Z,2.30
2019-03-30T08:56:37.018Z,2.50
2019-03-30T08:57:37.000Z,2.70
2019-03-30T08:58:36.987Z,2.40
2019-03-30T08:59:36.980Z,2.60
2019-03-30T09:00:36.976Z,2.40
2019-03-30T09:01:37.038Z,2.30
2019-03-30T09:02:36.945Z,2.60
2019-03-30T09:03:36.940Z,2.40
2019-03-30T09:04:36.924Z,2.70
2019-03-30T09:05:36.913Z,2.50
2019-03-30T09:06:36.934Z,2.60
2019-03-30T09:07:36.913Z,3.00
2019-03-30T09:08:36.879Z,2.70
2019-03-30T09:09:36.873Z,2.80
2019-03-30T09:10:36.855Z,3.30
2019-03-30T09:11:36.862Z,5.50
2019-03-30T09:12:36.867Z,8.90
2019-03-30T09:13:36.827Z,11.20
2019-03-30T09:14:36.946Z,10.10
2019-03-30T09:15:36.945Z,11.30
2019-03-30T09:16:37.286Z,11.70
2019-03-30T09:17:37.482Z,10.30
2019-03-30T09:18:36.780Z,10.70
2019-03-30T09:19:36.757Z,11.40
2019-03-30T09:20:36.751Z,12.20
2019-03-30T09:21:36.737Z,12.80
2019-03-30T09:22:36.751Z,12.10
2019-03-30T09:23:36.725Z,12.90
2019-03-30T09:24:36.706Z,14.00
2019-03-30T09:25:36.781Z,13.20
2019-03-30T09:26:36.679Z,13.40
2019-03-30T09:27:36.675Z,13.20
2019-03-30T09:28:36.661Z,13.00
2019-03-30T09:29:36.756Z,12.70
2019-03-30T09:30:36.643Z,12.50
2019-03-30T09:31:36.636Z,13.40
2019-03-30T09:32:36.618Z,13.10
2019-03-30T09:33:36.623Z,13.00
2019-03-30T09:34:36.598Z,13.80
2019-03-30T09:35:36.591Z,13.30
2019-03-30T09:36:36.622Z,13.90
2019-03-30T09:37:36.566Z,14.00
2019-03-30T09:38:36.553Z,13.60
2019-03-30T09:39:36.551Z,14.30
2019-03-30T09:40:36.541Z,13.80
2019-03-30T09:41:36.529Z,14.40
2019-03-30T09:42:36.516Z,14.20
2019-03-30T09:43:37.701Z,13.90
2019-03-30T09:44:36.488Z,13.70
2019-03-30T09:45:36.483Z,13.80
2019-03-30T09:46:36.474Z,13.30
2019-03-30T09:47:36.460Z,13.60
2019-03-30T09:48:36.472Z,13.60
2019-03-30T09:49:36.438Z,13.30
2019-03-30T09:50:36.453Z,13.90
2019-03-30T09:51:36.445Z,12.80
2019-03-30T09:52:36.419Z,13.50
2019-03-30T09:53:36.403Z,13.60
2019-03-30T09:54:36.415Z,12.90
2019-03-30T09:55:36.369Z,12.90
2019-03-30T09:56:36.384Z,12.30
2019-03-30T09:57:36.359Z,13.00
2019-03-30T09:58:36.353Z,12.00
2019-03-30T09:59:36.420Z,11.50
2019-03-30T10:00:36.333Z,11.40
2019-03-30T10:01:36.306Z,12.30
2019-03-30T10:02:36.297Z,11.80
2019-03-30T10:03:36.293Z,11.60
2019-03-30T10:04:36.279Z,11.00
2019-03-30T10:05:36.266Z,10.40
2019-03-30T10:06:36.267Z,10.80
2019-03-30T10:07:36.242Z,10.30
2019-03-30T10:08:36.232Z,9.90
2019-03-30T10:09:36.236Z,10.20
2019-03-30T10:10:36.216Z,9.90
2019-03-30T10:11:36.221Z,11.30
2019-03-30T10:12:36.272Z,12.10
2019-03-30T10:13:36.233Z,12.50
2019-03-30T10:14:36.172Z,9.80
2019-03-30T10:15:36.170Z,10.20
2019-03-30T10:16:36.152Z,10.40
2019-03-30T10:17:36.135Z,10.90
2019-03-30T10:18:36.127Z,11.00
2019-03-30T10:19:36.140Z,11.00
2019-03-30T10:20:36.118Z,11.00
2019-03-30T10:21:36.103Z,10.30
2019-03-30T10:22:36.082Z,10.20
2019-03-30T10:23:36.082Z,9.30
2019-03-30T10:24:38.414Z,10.40
2019-03-30T10:25:36.048Z,9.40
2019-03-30T10:26:36.049Z,9.10
2019-03-30T10:27:36.026Z,9.50
2019-03-30T10:28:36.051Z,8.00
2019-03-30T10:29:36.007Z,8.70
2019-03-30T10:30:36.005Z,8.70
2019-03-30T10:31:35.984Z,8.90
2019-03-30T10:32:35.998Z,8.50
2019-03-30T10:33:35.968Z,8.00
2019-03-30T10:34:39.315Z,8.00
2019-03-30T10:35:35.970Z,8.60
2019-03-30T10:36:35.931Z,7.70
2019-03-30T10:37:35.923Z,8.20
2019-03-30T10:38:35.915Z,7.70
2019-03-30T10:39:35.903Z,8.60
2019-03-30T10:40:35.895Z,9.60
2019-03-30T10:41:35.881Z,11.20
2019-03-30T10:42:35.867Z,12.10
2019-03-30T10:43:35.861Z,12.50
2019-03-30T10:44:35.894Z,13.00
2019-03-30T10:45:35.838Z,13.30
2019-03-30T10:46:35.828Z,13.40
2019-03-30T10:47:35.826Z,13.50
2019-03-30T10:48:35.801Z,13.40
2019-03-30T10:49:35.796Z,11.50
2019-03-30T10:50:35.787Z,12.80
2019-03-30T10:51:35.824Z,11.50
2019-03-30T10:52:35.765Z,10.30
2019-03-30T10:53:35.752Z,10.60
2019-03-30T10:54:35.740Z,11.10
2019-03-30T10:55:35.980Z,10.60
2019-03-30T10:56:35.716Z,9.80
2019-03-30T10:57:35.706Z,10.20
2019-03-30T10:58:35.704Z,9.90
2019-03-30T10:59:35.708Z,9.70
2019-03-30T11:00:35.696Z,10.00
2019-03-30T11:01:35.675Z,9.30
2019-03-30T11:02:35.653Z,10.20
2019-03-30T11:03:35.641Z,9.30
2019-03-30T11:04:37.614Z,9.00
2019-03-30T11:05:35.616Z,9.60
2019-03-30T11:06:35.657Z,9.40
2019-03-30T11:07:35.622Z,9.40
2019-03-30T11:08:35.637Z,8.50
2019-03-30T11:09:35.575Z,8.90
2019-03-30T11:10:35.643Z,8.50
2019-03-30T11:11:35.551Z,8.60
2019-03-30T11:12:35.544Z,8.60
2019-03-30T11:13:35.547Z,8.30
2019-03-30T11:14:35.519Z,8.50
2019-03-30T11:15:35.505Z,8.20
2019-03-30T11:16:35.496Z,8.40
2019-03-30T11:17:35.551Z,8.20
2019-03-30T11:18:35.473Z,7.70
2019-03-30T11:19:35.475Z,7.60
2019-03-30T11:20:35.463Z,8.20
2019-03-30T11:21:35.442Z,7.60
2019-03-30T11:22:35.426Z,6.90
2019-03-30T11:23:35.457Z,7.60
2019-03-30T11:24:35.415Z,6.70
2019-03-30T11:25:35.416Z,7.50
2019-03-30T11:26:35.470Z,7.70
2019-03-30T11:27:35.376Z,7.30
2019-03-30T11:28:35.363Z,7.60
2019-03-30T11:29:35.359Z,7.60
2019-03-30T11:30:35.335Z,7.00
2019-03-30T11:31:35.330Z,7.60
2019-03-30T11:32:35.381Z,6.90
2019-03-30T11:33:35.306Z,7.20
2019-03-30T11:34:35.297Z,7.50
2019-03-30T11:35:35.286Z,7.60
2019-03-30T11:36:35.327Z,9.30
2019-03-30T11:37:35.267Z,9.20
2019-03-30T11:38:35.441Z,9.80
2019-03-30T11:39:35.253Z,9.30
2019-03-30T11:40:35.236Z,9.60
2019-03-30T11:41:35.220Z,10.10
2019-03-30T11:42:35.460Z,9.70
2019-03-30T11:43:35.201Z,9.10
2019-03-30T11:44:35.188Z,9.50
2019-03-30T11:45:35.176Z,9.00
2019-03-30T11:46:35.170Z,8.50
2019-03-30T11:47:35.164Z,8.20
2019-03-30T11:48:37.525Z,8.70
2019-03-30T11:49:35.134Z,7.80
2019-03-30T11:50:35.124Z,8.40
2019-03-30T11:51:35.104Z,7.60
2019-03-30T11:52:35.100Z,7.50
2019-03-30T11:53:35.081Z,7.30
2019-03-30T11:54:35.074Z,6.70
2019-03-30T11:55:35.071Z,6.50
2019-03-30T11:56:35.090Z,6.80
2019-03-30T11:57:35.036Z,6.70
2019-03-30T11:58:35.031Z,6.70
2019-03-30T11:59:35.016Z,6.70
2019-03-30T12:00:35.007Z,7.80
2019-03-30T12:01:35.009Z,6.90
2019-03-30T12:02:34.985Z,6.90
2019-03-30T12:03:34.974Z,6.40
2019-03-30T12:04:34.963Z,6.10
2019-03-30T12:05:35.010Z,6.90
2019-03-30T12:06:34.950Z,6.10
2019-03-30T12:07:34.939Z,6.10
2019-03-30T12:08:34.957Z,6.00
2019-03-30T12:09:43.252Z,5.70
2019-03-30T12:11:05.376Z,6.70
2019-03-30T12:12:05.385Z,6.70
2019-03-30T12:13:35.937Z,5.40
2019-03-30T12:14:35.802Z,5.50
2019-03-30T12:16:06.279Z,4.70
2019-03-30T12:17:06.257Z,5.40
2019-03-30T12:18:36.711Z,4.60
2019-03-30T12:19:36.698Z,5.20
2019-03-30T12:20:36.691Z,5.20
2019-03-30T12:21:36.695Z,5.10
2019-03-30T12:22:36.680Z,5.70
2019-03-30T12:23:36.657Z,5.90
2019-03-30T12:24:36.647Z,5.20
2019-03-30T12:25:36.638Z,5.10
2019-03-30T12:26:36.628Z,5.30
2019-03-30T12:27:36.614Z,5.50
2019-03-30T12:28:36.621Z,4.60
2019-03-30T12:29:36.591Z,5.00
2019-03-30T12:30:36.581Z,5.50
2019-03-30T12:31:36.571Z,5.20
2019-03-30T12:32:36.567Z,4.90
2019-03-30T12:33:36.557Z,4.80
2019-03-30T12:34:36.557Z,4.40
2019-03-30T12:35:36.537Z,4.40
2019-03-30T12:36:36.522Z,4.50
2019-03-30T12:37:36.506Z,5.10
2019-03-30T12:38:36.504Z,5.00
2019-03-30T12:39:36.494Z,4.60
2019-03-30T12:40:36.494Z,4.90
2019-03-30T12:41:36.464Z,4.50
2019-03-30T12:42:36.457Z,4.60
2019-03-30T12:43:38.981Z,4.30
2019-03-30T12:44:36.444Z,4.80
2019-03-30T12:45:36.433Z,4.40
2019-03-30T12:46:36.413Z,4.70
2019-03-30T12:47:36.400Z,4.40
2019-03-30T12:48:36.391Z,4.30
2019-03-30T12:49:36.384Z,4.60
2019-03-30T12:50:36.393Z,4.60
2019-03-30T12:51:36.449Z,4.90
2019-03-30T12:52:36.370Z,4.60
2019-03-30T12:53:49.160Z,4.40
2019-03-30T12:54:37.338Z,4.10
2019-03-30T12:55:48.622Z,4.40
2019-03-30T12:56:37.458Z,4.50
2019-03-30T12:57:36.303Z,4.50
2019-03-30T12:58:36.288Z,4.50
2019-03-30T12:59:36.272Z,3.90
2019-03-30T13:00:36.262Z,4.40
2019-03-30T13:01:36.402Z,4.40
2019-03-30T13:02:36.251Z,4.20
2019-03-30T13:03:36.269Z,4.20
2019-03-30T13:04:36.297Z,4.00
2019-03-30T13:05:36.221Z,4.10
2019-03-30T13:06:36.222Z,4.00
2019-03-30T13:07:36.202Z,4.00
2019-03-30T13:08:36.185Z,4.00
2019-03-30T13:09:36.165Z,4.10
2019-03-30T13:10:36.162Z,3.90
2019-03-30T13:11:36.141Z,4.30
2019-03-30T13:12:36.134Z,4.10
2019-03-30T13:13:36.143Z,4.00
2019-03-30T13:14:36.115Z,4.00
2019-03-30T13:15:36.172Z,4.00
2019-03-30T13:16:36.087Z,3.80
2019-03-30T13:17:36.076Z,3.80